Strona główna
METAR-TAF:

METAR-TAF

Lotnisko :

Port lotniczy Bukareszt-Băneasa

Bukareszt Băneasa, Rumunia

Szerokość geograficzna: 44-30N, Długość geograficzna: 026-08E, wysokość: 90 m

Aktualna obserwacja pogody

Raport powstał 38 minut temu, godzina 01:00 UTC
Wiatr 3 kt od południowy wschód
Temperatura -1°C
Wilgotność 80%
Ciśnienie 1043 hPa
Widzialność: 8000 m

METAR: LRBS 210100Z 14003KT 8000 NSC M01/M04 Q1043 NOSIG

czas: 03:38 (01:38 UTC)

Prognoza

Raport powstał 2 godziny i 38 minut temu, godzina 23:00 UTC
Prognoza ważna od 21 godzina 00 UTC do 21 godzina 24 UTC
Wiatr 6 kt od południowy wschód
Widzialność: 5000 m
zamglenie
Przejściowo
od 21 godzina 01 UTC do 21 godzina 06 UTC
Widzialność: 1500 m
Przerywane chmury na wysokości 500 ft
zamglenie
Stopniowe zmiany
od 21 godzina 06 UTC do 21 godzina 08 UTC
Wiatr 10 kt od zachód
Widzialność 10 km lub więcej
Rozproszone chmury na wysokości 1500 ft

TAF: LRBS 202300Z 2100/2124 13006KT 5000 BR NSC TEMPO 2101/2106 1500 BR BKN005 BECMG 2106/2108 26010KT 9999 NSW SCT015

Obserwacja i prognoza pogody dla ponad 4000 lotnisk (raport METAR i TAF).

Dostępne stacje oznaczono żółtymi i czerwonymi punktami na mapie.

Najedź kursorem aby zobaczyć nazwę stacji.

Kliknij aby zobaczyć obserwacje i prognozy pogody.

Aby zmienić mapę: kliknij na zielony przycisk z czarnym krzyżykiem, aby powiększyć; na zielony przycisk z myślnikiem, aby pomniejszyć; na zielone strzałki, aby przejść do map sąsiednich.


METAR-TAF: